createdAt,value
2022-12-02T07:12:42.486Z,111.90
2022-12-02T07:15:49.918Z,129.59
2022-12-02T07:18:56.593Z,135.12
2022-12-02T07:22:06.414Z,138.64
2022-12-02T07:25:40.152Z,130.96
2022-12-02T07:28:59.179Z,132.72
2022-12-02T07:32:13.528Z,126.63
2022-12-02T07:35:22.436Z,132.17
2022-12-02T07:39:05.403Z,133.48
2022-12-02T07:42:17.016Z,132.18
2022-12-02T07:45:26.206Z,125.47
2022-12-02T07:48:50.827Z,128.78
2022-12-02T07:52:03.044Z,143.04
2022-12-02T07:55:11.811Z,150.54
2022-12-02T07:58:18.440Z,154.15
2022-12-02T08:01:45.720Z,149.18
2022-12-02T08:04:54.209Z,148.46
2022-12-02T08:08:09.654Z,150.65
2022-12-02T08:11:16.628Z,146.52
2022-12-02T08:14:34.107Z,155.39
2022-12-02T08:18:01.585Z,155.12
2022-12-02T08:21:18.090Z,131.19
2022-12-02T08:25:50.701Z,129.24
2022-12-02T08:29:08.022Z,131.72
2022-12-02T08:33:06.190Z,124.98
2022-12-02T08:36:45.784Z,111.95
2022-12-02T08:40:03.903Z,115.11
2022-12-02T08:43:11.297Z,131.27
2022-12-02T08:46:18.923Z,152.84
2022-12-02T08:49:30.054Z,163.49
2022-12-02T08:52:46.355Z,175.13
2022-12-02T08:55:58.685Z,193.33
2022-12-02T09:04:16.038Z,184.57
2022-12-02T09:08:12.707Z,158.41
2022-12-02T09:11:51.641Z,134.71
2022-12-02T09:15:43.197Z,121.70
2022-12-02T09:19:05.918Z,111.17
2022-12-02T09:22:14.488Z,117.68
2022-12-02T09:25:32.142Z,128.42
2022-12-02T09:28:57.438Z,112.31
2022-12-02T09:36:08.085Z,92.68
2022-12-02T09:39:39.390Z,85.70
2022-12-02T09:42:54.985Z,117.33
2022-12-02T12:15:59.463Z,55.02
2022-12-02T12:19:29.272Z,55.04
2022-12-02T12:22:38.683Z,52.12
2022-12-02T12:25:48.116Z,53.06
2022-12-02T12:28:56.453Z,54.32
2022-12-02T12:32:09.893Z,52.63
2022-12-02T12:35:18.165Z,51.34
2022-12-02T12:38:31.038Z,52.52
2022-12-02T12:45:11.236Z,51.61
2022-12-02T12:48:22.315Z,48.85
2022-12-02T12:51:31.448Z,51.11
2022-12-02T12:54:39.431Z,50.71
2022-12-02T12:57:50.571Z,51.37
2022-12-02T13:00:58.584Z,48.77
2022-12-02T13:04:10.416Z,52.16
2022-12-02T13:07:18.452Z,51.73
2022-12-02T13:10:28.273Z,49.92
2022-12-02T13:13:36.517Z,50.41
2022-12-02T13:16:45.440Z,49.59
2022-12-02T13:19:56.091Z,53.49
2022-12-02T13:23:06.213Z,50.55
2022-12-02T13:26:15.479Z,51.22
2022-12-02T13:29:24.551Z,49.61
2022-12-02T13:40:49.089Z,45.41
2022-12-02T14:33:25.313Z,54.05
2022-12-02T14:34:47.286Z,52.80
2022-12-02T14:35:55.140Z,48.22
2022-12-02T14:37:03.500Z,50.48
2022-12-02T14:38:10.807Z,49.00
2022-12-02T14:39:17.895Z,46.58
2022-12-02T14:40:25.458Z,47.21
2022-12-02T14:41:33.442Z,52.02
2022-12-02T14:43:33.859Z,48.19
2022-12-02T14:44:42.793Z,47.85
2022-12-02T14:45:50.811Z,49.81
2022-12-02T14:46:58.811Z,47.84
2022-12-02T14:48:06.995Z,47.66
2022-12-02T19:57:47.726Z,86.67
2022-12-02T19:58:52.374Z,98.36
2022-12-02T19:59:58.318Z,100.14
2022-12-02T20:01:04.420Z,97.26
2022-12-02T20:02:10.424Z,95.08
2022-12-02T20:03:17.679Z,100.39
2022-12-02T20:04:41.912Z,103.55
2022-12-02T20:05:48.705Z,99.16
2022-12-02T20:07:40.978Z,92.86
2022-12-02T20:08:47.973Z,98.56
2022-12-02T20:09:54.037Z,103.54
2022-12-02T20:10:57.559Z,98.71
2022-12-02T20:12:03.861Z,103.13
2022-12-02T20:13:07.441Z,101.43
2022-12-02T20:14:14.591Z,95.52
2022-12-02T20:15:18.252Z,96.75
2022-12-02T20:16:24.301Z,97.13
2022-12-02T20:17:30.330Z,94.80
2022-12-02T20:18:33.895Z,97.29
2022-12-02T20:19:40.973Z,92.88
2022-12-02T20:20:44.661Z,94.90
2022-12-02T20:21:50.678Z,88.49
2022-12-02T20:22:57.070Z,100.76
2022-12-02T20:24:03.251Z,93.57
2022-12-02T20:25:10.730Z,98.42
2022-12-02T20:26:16.723Z,96.88
2022-12-02T20:27:20.296Z,96.06
2022-12-02T20:28:26.536Z,94.42
2022-12-02T20:29:32.638Z,95.37
2022-12-02T20:30:39.674Z,89.55
2022-12-02T20:31:45.769Z,91.71
2022-12-02T20:32:51.810Z,95.53
2022-12-02T20:33:57.810Z,93.24
2022-12-02T20:35:03.963Z,91.72
2022-12-02T20:36:09.652Z,91.27
2022-12-02T20:37:15.758Z,88.26
2022-12-02T20:38:22.010Z,93.64
2022-12-02T20:39:28.160Z,91.27
2022-12-02T20:40:31.585Z,94.12
2022-12-02T20:41:38.496Z,92.04
2022-12-02T20:42:44.929Z,92.40
2022-12-02T20:43:51.153Z,92.08
2022-12-02T20:44:55.397Z,86.39
2022-12-02T20:46:02.022Z,87.94
2022-12-02T20:47:06.660Z,91.62
2022-12-02T20:48:13.096Z,89.06
2022-12-02T20:49:16.888Z,90.08
2022-12-02T20:50:23.021Z,89.33
2022-12-02T20:51:26.526Z,83.85
2022-12-02T20:52:33.757Z,88.06
2022-12-02T20:53:42.376Z,88.59
2022-12-02T20:54:48.936Z,81.73
2022-12-02T20:55:52.893Z,84.44
2022-12-02T20:57:00.396Z,86.69
2022-12-02T20:58:08.591Z,87.66
2022-12-02T20:59:12.068Z,88.05
2022-12-02T21:00:20.090Z,86.35
2022-12-02T21:01:23.948Z,82.52
2022-12-02T21:02:30.125Z,87.85
2022-12-02T21:03:37.470Z,81.71
2022-12-02T21:04:41.013Z,84.10
2022-12-02T21:05:47.373Z,86.96
2022-12-02T21:06:50.834Z,93.17
2022-12-02T21:07:57.178Z,91.56
2022-12-02T21:09:07.225Z,93.51
2022-12-02T21:10:12.392Z,121.10
2022-12-02T21:11:18.696Z,133.01
2022-12-02T21:12:22.301Z,127.36
2022-12-02T21:13:28.977Z,133.57
2022-12-02T21:14:36.101Z,133.75
2022-12-02T21:15:42.706Z,136.27
2022-12-02T21:24:50.257Z,230.93
2022-12-02T21:25:57.979Z,264.14
2022-12-02T21:27:11.271Z,275.89
2022-12-02T21:28:18.969Z,268.97
2022-12-02T21:29:23.119Z,258.73
2022-12-02T21:30:30.098Z,254.63
2022-12-02T21:31:34.646Z,263.73
2022-12-02T21:32:40.830Z,247.51
2022-12-02T21:33:47.847Z,238.31
2022-12-02T21:34:51.918Z,222.90
2022-12-02T21:35:58.528Z,250.52
2022-12-02T21:37:03.301Z,284.88
2022-12-02T21:38:10.461Z,300.23
2022-12-02T21:39:13.982Z,299.37
2022-12-02T21:40:23.112Z,286.03
2022-12-02T21:41:26.956Z,270.52
2022-12-02T21:42:34.730Z,279.33
2022-12-02T21:43:40.774Z,284.78
2022-12-02T21:44:47.050Z,284.36
2022-12-02T21:45:51.940Z,299.02
2022-12-02T21:47:01.171Z,302.62
2022-12-02T21:48:08.940Z,314.73
2022-12-02T21:49:27.640Z,302.82
2022-12-02T21:50:43.474Z,280.62
2022-12-02T21:51:49.805Z,279.15
2022-12-02T21:52:56.139Z,287.54
2022-12-02T21:54:01.453Z,275.20
2022-12-02T21:55:09.746Z,294.22
2022-12-02T21:56:18.952Z,310.80
2022-12-02T21:57:22.600Z,313.49
2022-12-02T21:58:29.384Z,318.17
2022-12-02T21:59:36.413Z,338.86
2022-12-02T22:00:40.332Z,359.58
2022-12-02T22:01:47.834Z,373.49
2022-12-02T22:02:54.230Z,352.58
2022-12-02T22:03:58.610Z,367.22
2022-12-02T22:05:08.471Z,363.32
2022-12-02T22:06:13.526Z,338.04
2022-12-02T22:07:32.278Z,345.81
2022-12-02T22:08:38.708Z,365.74
2022-12-02T22:09:43.261Z,358.43
2022-12-02T22:10:52.356Z,337.21
2022-12-02T22:12:04.522Z,332.51
2022-12-02T22:13:12.301Z,332.51
2022-12-02T22:14:20.256Z,318.11
2022-12-02T22:15:27.011Z,319.61
2022-12-02T22:16:32.470Z,322.39
2022-12-02T22:17:40.040Z,323.90
2022-12-02T22:18:44.360Z,334.85
2022-12-02T22:19:51.061Z,331.11
2022-12-02T22:20:59.812Z,333.10
2022-12-02T22:22:05.586Z,338.72
2022-12-02T22:23:12.146Z,326.02
2022-12-02T22:24:19.818Z,328.55
2022-12-02T22:25:31.751Z,309.64
2022-12-02T22:26:36.936Z,327.57
2022-12-02T22:27:49.990Z,314.67
2022-12-02T22:28:54.756Z,339.07
2022-12-02T22:30:01.239Z,329.63
2022-12-02T22:31:05.060Z,325.30
2022-12-02T22:32:11.526Z,342.77
2022-12-02T22:33:18.711Z,338.34
2022-12-02T22:34:24.800Z,324.12
2022-12-02T22:35:31.211Z,343.50
2022-12-02T22:36:35.465Z,345.60
2022-12-02T22:37:43.979Z,345.43
2022-12-02T22:38:48.670Z,352.05
2022-12-02T22:40:08.260Z,351.05
2022-12-02T22:41:17.203Z,339.57
2022-12-02T22:42:23.367Z,347.44
2022-12-02T22:43:30.939Z,357.03
2022-12-02T22:44:38.213Z,341.39
2022-12-02T22:45:44.997Z,332.57
2022-12-02T22:46:51.739Z,336.38
2022-12-02T22:47:55.312Z,319.90
2022-12-02T22:49:05.375Z,321.29
2022-12-02T22:50:12.224Z,327.74
2022-12-02T22:51:19.811Z,325.53
2022-12-02T22:52:23.521Z,325.40
2022-12-02T22:53:29.872Z,312.48
2022-12-02T22:54:33.580Z,336.13
2022-12-02T22:55:41.033Z,321.22
2022-12-02T22:56:44.910Z,322.69
2022-12-02T22:57:51.558Z,327.52
2022-12-02T22:59:00.121Z,332.98
2022-12-02T23:00:08.284Z,306.05
2022-12-02T23:01:15.214Z,310.34
2022-12-02T23:02:24.152Z,319.83
2022-12-02T23:03:29.183Z,314.96
2022-12-02T23:04:36.263Z,317.16
2022-12-02T23:05:40.670Z,319.32
2022-12-02T23:06:48.441Z,304.81
2022-12-02T23:07:52.286Z,304.71
2022-12-02T23:08:59.148Z,298.16
2022-12-02T23:10:04.046Z,299.92
2022-12-02T23:11:10.326Z,310.02
2022-12-02T23:12:14.783Z,301.61
2022-12-02T23:13:20.925Z,306.67
2022-12-02T23:14:27.787Z,314.91
2022-12-02T23:15:36.920Z,313.63
2022-12-02T23:16:41.057Z,317.57
2022-12-02T23:17:48.157Z,316.98
2022-12-02T23:18:51.721Z,333.09
2022-12-02T23:19:57.849Z,327.89
2022-12-02T23:21:01.525Z,339.89
2022-12-02T23:22:07.949Z,345.42
2022-12-02T23:23:12.379Z,338.96
2022-12-02T23:24:18.608Z,360.62
2022-12-02T23:25:22.326Z,343.78
2022-12-02T23:26:28.383Z,360.06
2022-12-02T23:27:31.947Z,361.86
2022-12-02T23:28:38.999Z,347.16
2022-12-02T23:29:45.197Z,349.81
2022-12-02T23:30:51.282Z,348.64
2022-12-02T23:31:54.911Z,337.37
2022-12-02T23:33:01.371Z,337.79
2022-12-02T23:34:05.890Z,337.66
2022-12-02T23:35:12.868Z,346.09
2022-12-02T23:36:16.464Z,322.85
2022-12-02T23:37:22.713Z,328.28
2022-12-02T23:38:26.315Z,348.94
2022-12-02T23:39:33.530Z,343.89
2022-12-02T23:40:37.030Z,354.91
2022-12-02T23:41:43.187Z,345.17
2022-12-02T23:42:52.459Z,345.65
2022-12-02T23:43:58.873Z,354.68
2022-12-02T23:45:07.801Z,345.57
2022-12-02T23:46:14.051Z,345.11
2022-12-02T23:47:17.578Z,354.21
2022-12-02T23:48:23.617Z,353.44
2022-12-02T23:49:27.149Z,350.34
2022-12-02T23:50:34.286Z,346.12
2022-12-02T23:51:37.690Z,353.03
2022-12-02T23:52:46.185Z,349.04
2022-12-02T23:53:49.747Z,347.21
2022-12-02T23:54:56.191Z,338.85
2022-12-02T23:56:00.559Z,335.45
2022-12-02T23:57:06.812Z,342.71
2022-12-02T23:58:11.262Z,343.47
2022-12-02T23:59:17.422Z,334.83
